Holeby, Denmark
Current Conditions -  °F | °C
As of 1:50 PM on Friday 24 Oct 2014 (Local Time) from EDHK Reporting Station
Broken Clouds Broken Clouds  
Wind Chill: 55°   Ceiling: 12000
Heat Index: 55°   Visibility: 6mi
Dew Point: 45°   Wind: 10mph
Humidity: 67%   Direction: 210°SSW
Pressure: 30.09"   Gusts: NA
Location:  54.71°N, 11.46°E
Report Text: EDHK 241150Z 21009KT 160V250 9999 SCT025 BKN120 13/07 Q1019
Loading
Personal Weather Stations






























Interactive Weather Map
Tropical Storm Tracking
New forecast layout! Learn more

10-Day Weather Forecast

Advertisements
Track Severe Weather on mobile